sensor_id;sensor_type;location;lat;lon;timestamp;pressure;altitude;pressure_sealevel;temperature;humidity
62057;BME280;48016;50.284;18.860;2024-02-23T00:02:10;96190.06;;;8.41;72.35
62057;BME280;48016;50.284;18.860;2024-02-23T00:04:36;96183.44;;;8.41;72.34
62057;BME280;48016;50.284;18.860;2024-02-23T00:07:02;96180.92;;;8.40;72.43
62057;BME280;48016;50.284;18.860;2024-02-23T00:09:28;96182.73;;;8.41;72.41
62057;BME280;48016;50.284;18.860;2024-02-23T00:11:54;96183.52;;;8.42;72.65
62057;BME280;48016;50.284;18.860;2024-02-23T00:14:20;96184.85;;;8.44;72.61
62057;BME280;48016;50.284;18.860;2024-02-23T00:16:46;96187.31;;;8.45;72.57
62057;BME280;48016;50.284;18.860;2024-02-23T00:19:13;96182.00;;;8.46;72.54
62057;BME280;48016;50.284;18.860;2024-02-23T00:21:39;96179.60;;;8.46;72.54
62057;BME280;48016;50.284;18.860;2024-02-23T00:24:06;96179.69;;;8.46;72.60
62057;BME280;48016;50.284;18.860;2024-02-23T00:26:32;96175.04;;;8.47;72.64
62057;BME280;48016;50.284;18.860;2024-02-23T00:28:58;96171.12;;;8.47;72.46
62057;BME280;48016;50.284;18.860;2024-02-23T00:31:24;96170.92;;;8.45;72.44
62057;BME280;48016;50.284;18.860;2024-02-23T00:33:50;96171.33;;;8.44;72.42
62057;BME280;48016;50.284;18.860;2024-02-23T00:36:15;96168.59;;;8.43;72.36
62057;BME280;48016;50.284;18.860;2024-02-23T00:38:42;96169.80;;;8.42;72.25
62057;BME280;48016;50.284;18.860;2024-02-23T00:41:08;96168.92;;;8.40;72.36
62057;BME280;48016;50.284;18.860;2024-02-23T00:43:41;96171.73;;;8.39;72.35
62057;BME280;48016;50.284;18.860;2024-02-23T00:46:07;96172.90;;;8.37;72.34
62057;BME280;48016;50.284;18.860;2024-02-23T00:48:33;96176.89;;;8.37;72.56
62057;BME280;48016;50.284;18.860;2024-02-23T00:51:01;96177.06;;;8.36;72.66
62057;BME280;48016;50.284;18.860;2024-02-23T00:53:30;96175.87;;;8.37;72.81
62057;BME280;48016;50.284;18.860;2024-02-23T00:55:56;96175.50;;;8.37;72.86
62057;BME280;48016;50.284;18.860;2024-02-23T00:58:22;96175.06;;;8.36;72.93
62057;BME280;48016;50.284;18.860;2024-02-23T01:00:48;96176.95;;;8.37;72.94
62057;BME280;48016;50.284;18.860;2024-02-23T01:03:13;96181.27;;;8.37;73.00
62057;BME280;48016;50.284;18.860;2024-02-23T01:05:39;96180.19;;;8.37;73.04
62057;BME280;48016;50.284;18.860;2024-02-23T01:08:08;96185.12;;;8.37;73.16
62057;BME280;48016;50.284;18.860;2024-02-23T01:10:34;96189.34;;;8.37;73.14
62057;BME280;48016;50.284;18.860;2024-02-23T01:13:00;96192.62;;;8.39;73.18
62057;BME280;48016;50.284;18.860;2024-02-23T01:15:26;96188.85;;;8.39;73.05
62057;BME280;48016;50.284;18.860;2024-02-23T01:17:52;96182.54;;;8.38;73.11
62057;BME280;48016;50.284;18.860;2024-02-23T01:20:18;96183.84;;;8.37;72.97
62057;BME280;48016;50.284;18.860;2024-02-23T01:22:44;96187.02;;;8.38;72.91
62057;BME280;48016;50.284;18.860;2024-02-23T01:25:10;96181.70;;;8.38;72.76
62057;BME280;48016;50.284;18.860;2024-02-23T01:27:36;96182.52;;;8.35;72.64
62057;BME280;48016;50.284;18.860;2024-02-23T01:30:03;96180.73;;;8.35;72.72
62057;BME280;48016;50.284;18.860;2024-02-23T01:32:29;96179.52;;;8.35;72.78
62057;BME280;48016;50.284;18.860;2024-02-23T01:34:55;96172.69;;;8.34;72.92
62057;BME280;48016;50.284;18.860;2024-02-23T01:37:21;96183.04;;;8.33;72.84
62057;BME280;48016;50.284;18.860;2024-02-23T01:39:47;96185.05;;;8.35;72.95
62057;BME280;48016;50.284;18.860;2024-02-23T01:42:13;96187.04;;;8.36;73.02
62057;BME280;48016;50.284;18.860;2024-02-23T01:44:39;96179.98;;;8.36;73.08
62057;BME280;48016;50.284;18.860;2024-02-23T01:47:05;96169.77;;;8.37;73.14
62057;BME280;48016;50.284;18.860;2024-02-23T01:49:32;96167.30;;;8.38;73.00
62057;BME280;48016;50.284;18.860;2024-02-23T01:52:00;96162.45;;;8.38;73.10
62057;BME280;48016;50.284;18.860;2024-02-23T01:54:27;96162.08;;;8.38;73.12
62057;BME280;48016;50.284;18.860;2024-02-23T01:56:55;96168.01;;;8.38;73.19
62057;BME280;48016;50.284;18.860;2024-02-23T01:59:22;96164.94;;;8.38;72.98
62057;BME280;48016;50.284;18.860;2024-02-23T02:01:49;96163.69;;;8.34;72.95
62057;BME280;48016;50.284;18.860;2024-02-23T02:04:14;96160.89;;;8.34;72.63
62057;BME280;48016;50.284;18.860;2024-02-23T02:06:41;96163.79;;;8.32;72.68
62057;BME280;48016;50.284;18.860;2024-02-23T02:09:07;96164.39;;;8.30;72.59
62057;BME280;48016;50.284;18.860;2024-02-23T02:11:33;96161.57;;;8.28;72.54
62057;BME280;48016;50.284;18.860;2024-02-23T02:13:59;96161.02;;;8.27;72.50
62057;BME280;48016;50.284;18.860;2024-02-23T02:16:25;96167.05;;;8.26;72.52
62057;BME280;48016;50.284;18.860;2024-02-23T02:18:51;96158.81;;;8.26;72.51
62057;BME280;48016;50.284;18.860;2024-02-23T02:21:17;96157.15;;;8.25;72.47
62057;BME280;48016;50.284;18.860;2024-02-23T02:23:42;96164.64;;;8.26;72.58
62057;BME280;48016;50.284;18.860;2024-02-23T02:26:08;96168.65;;;8.26;72.66
62057;BME280;48016;50.284;18.860;2024-02-23T02:28:34;96168.80;;;8.27;72.66
62057;BME280;48016;50.284;18.860;2024-02-23T02:31:00;96175.42;;;8.27;72.75
62057;BME280;48016;50.284;18.860;2024-02-23T02:33:26;96175.90;;;8.27;72.70
62057;BME280;48016;50.284;18.860;2024-02-23T02:35:52;96177.14;;;8.28;72.81
62057;BME280;48016;50.284;18.860;2024-02-23T02:38:18;96182.16;;;8.27;72.90
62057;BME280;48016;50.284;18.860;2024-02-23T02:40:44;96190.75;;;8.25;73.02
62057;BME280;48016;50.284;18.860;2024-02-23T02:43:10;96195.23;;;8.24;73.02
62057;BME280;48016;50.284;18.860;2024-02-23T02:45:36;96189.23;;;8.23;73.29
62057;BME280;48016;50.284;18.860;2024-02-23T02:48:03;96197.17;;;8.21;73.38
62057;BME280;48016;50.284;18.860;2024-02-23T02:50:29;96197.61;;;8.19;73.52
62057;BME280;48016;50.284;18.860;2024-02-23T02:52:55;96199.29;;;8.18;73.54
62057;BME280;48016;50.284;18.860;2024-02-23T02:55:21;96200.73;;;8.16;73.68
62057;BME280;48016;50.284;18.860;2024-02-23T02:57:47;96198.59;;;8.13;73.71
62057;BME280;48016;50.284;18.860;2024-02-23T03:00:13;96199.88;;;8.12;73.97
62057;BME280;48016;50.284;18.860;2024-02-23T03:02:38;96200.26;;;8.10;73.95
62057;BME280;48016;50.284;18.860;2024-02-23T03:05:05;96203.92;;;8.10;74.16
62057;BME280;48016;50.284;18.860;2024-02-23T03:07:31;96204.36;;;8.09;74.15
62057;BME280;48016;50.284;18.860;2024-02-23T03:09:57;96206.96;;;8.08;74.30
62057;BME280;48016;50.284;18.860;2024-02-23T03:12:23;96204.88;;;8.08;74.38
62057;BME280;48016;50.284;18.860;2024-02-23T03:14:48;96207.08;;;8.08;74.50
62057;BME280;48016;50.284;18.860;2024-02-23T03:17:15;96212.46;;;8.08;74.52
62057;BME280;48016;50.284;18.860;2024-02-23T03:19:41;96215.52;;;8.08;74.73
62057;BME280;48016;50.284;18.860;2024-02-23T03:22:09;96213.36;;;8.09;74.78
62057;BME280;48016;50.284;18.860;2024-02-23T03:24:35;96212.39;;;8.09;74.82
62057;BME280;48016;50.284;18.860;2024-02-23T03:27:01;96215.16;;;8.08;74.91
62057;BME280;48016;50.284;18.860;2024-02-23T03:29:27;96222.02;;;8.05;74.92
62057;BME280;48016;50.284;18.860;2024-02-23T03:31:56;96218.82;;;8.03;75.19
62057;BME280;48016;50.284;18.860;2024-02-23T03:34:22;96219.72;;;8.00;75.36
62057;BME280;48016;50.284;18.860;2024-02-23T03:36:48;96224.38;;;7.98;75.42
62057;BME280;48016;50.284;18.860;2024-02-23T03:39:14;96222.79;;;7.96;75.56
62057;BME280;48016;50.284;18.860;2024-02-23T03:41:40;96223.95;;;7.93;75.68
62057;BME280;48016;50.284;18.860;2024-02-23T03:44:06;96220.96;;;7.91;75.80
62057;BME280;48016;50.284;18.860;2024-02-23T03:46:32;96227.56;;;7.87;75.96
62057;BME280;48016;50.284;18.860;2024-02-23T03:48:58;96223.39;;;7.85;76.16
62057;BME280;48016;50.284;18.860;2024-02-23T03:51:24;96224.79;;;7.82;76.38
62057;BME280;48016;50.284;18.860;2024-02-23T03:53:50;96232.41;;;7.79;76.34
62057;BME280;48016;50.284;18.860;2024-02-23T03:56:16;96236.89;;;7.77;76.47
62057;BME280;48016;50.284;18.860;2024-02-23T03:58:42;96231.59;;;7.76;76.58
62057;BME280;48016;50.284;18.860;2024-02-23T04:01:08;96232.73;;;7.74;76.56
62057;BME280;48016;50.284;18.860;2024-02-23T04:03:34;96233.45;;;7.73;76.71
62057;BME280;48016;50.284;18.860;2024-02-23T04:06:00;96237.17;;;7.71;76.92
62057;BME280;48016;50.284;18.860;2024-02-23T04:08:27;96239.63;;;7.69;77.04
62057;BME280;48016;50.284;18.860;2024-02-23T04:10:52;96245.82;;;7.67;77.11
62057;BME280;48016;50.284;18.860;2024-02-23T04:13:19;96249.17;;;7.67;77.20
62057;BME280;48016;50.284;18.860;2024-02-23T04:15:45;96253.95;;;7.67;77.25
62057;BME280;48016;50.284;18.860;2024-02-23T04:18:11;96251.31;;;7.67;77.51
62057;BME280;48016;50.284;18.860;2024-02-23T04:20:37;96251.59;;;7.67;77.52
62057;BME280;48016;50.284;18.860;2024-02-23T04:23:03;96251.59;;;7.66;77.66
62057;BME280;48016;50.284;18.860;2024-02-23T04:25:29;96255.73;;;7.66;77.59
62057;BME280;48016;50.284;18.860;2024-02-23T04:27:55;96260.74;;;7.65;77.84
62057;BME280;48016;50.284;18.860;2024-02-23T04:30:21;96260.63;;;7.66;77.95
62057;BME280;48016;50.284;18.860;2024-02-23T04:32:47;96259.98;;;7.66;78.02
62057;BME280;48016;50.284;18.860;2024-02-23T04:35:13;96267.98;;;7.68;78.02
62057;BME280;48016;50.284;18.860;2024-02-23T04:37:40;96270.67;;;7.69;78.01
62057;BME280;48016;50.284;18.860;2024-02-23T04:40:09;96271.20;;;7.69;78.19
62057;BME280;48016;50.284;18.860;2024-02-23T04:42:35;96274.61;;;7.68;78.22
62057;BME280;48016;50.284;18.860;2024-02-23T04:45:01;96268.45;;;7.66;78.34
62057;BME280;48016;50.284;18.860;2024-02-23T04:47:27;96268.63;;;7.64;78.60
62057;BME280;48016;50.284;18.860;2024-02-23T04:49:53;96269.23;;;7.61;78.56
62057;BME280;48016;50.284;18.860;2024-02-23T04:52:19;96270.34;;;7.58;78.72
62057;BME280;48016;50.284;18.860;2024-02-23T04:54:45;96275.44;;;7.55;78.88
62057;BME280;48016;50.284;18.860;2024-02-23T04:57:11;96274.48;;;7.53;79.04
62057;BME280;48016;50.284;18.860;2024-02-23T04:59:37;96282.94;;;7.52;79.16
62057;BME280;48016;50.284;18.860;2024-02-23T05:02:03;96287.30;;;7.51;79.51
62057;BME280;48016;50.284;18.860;2024-02-23T05:04:29;96291.64;;;7.49;79.44
62057;BME280;48016;50.284;18.860;2024-02-23T05:06:55;96296.06;;;7.46;79.65
62057;BME280;48016;50.284;18.860;2024-02-23T05:09:21;96299.44;;;7.43;79.79
62057;BME280;48016;50.284;18.860;2024-02-23T05:11:47;96300.94;;;7.42;79.90
62057;BME280;48016;50.284;18.860;2024-02-23T05:14:14;96303.00;;;7.41;80.17
62057;BME280;48016;50.284;18.860;2024-02-23T05:16:40;96306.23;;;7.39;80.40
62057;BME280;48016;50.284;18.860;2024-02-23T05:19:05;96305.30;;;7.36;80.46
62057;BME280;48016;50.284;18.860;2024-02-23T05:21:31;96305.65;;;7.34;80.59
62057;BME280;48016;50.284;18.860;2024-02-23T05:23:57;96305.33;;;7.33;80.78
62057;BME280;48016;50.284;18.860;2024-02-23T05:26:23;96303.88;;;7.33;80.97
62057;BME280;48016;50.284;18.860;2024-02-23T05:28:49;96303.63;;;7.31;81.08
62057;BME280;48016;50.284;18.860;2024-02-23T05:31:15;96301.66;;;7.27;81.13
62057;BME280;48016;50.284;18.860;2024-02-23T05:33:41;96309.31;;;7.24;81.44
62057;BME280;48016;50.284;18.860;2024-02-23T05:36:07;96313.59;;;7.23;81.55
62057;BME280;48016;50.284;18.860;2024-02-23T05:38:33;96311.77;;;7.22;81.65
62057;BME280;48016;50.284;18.860;2024-02-23T05:40:59;96319.27;;;7.20;81.75
62057;BME280;48016;50.284;18.860;2024-02-23T05:43:26;96323.73;;;7.18;81.93
62057;BME280;48016;50.284;18.860;2024-02-23T05:45:52;96330.73;;;7.15;82.26
62057;BME280;48016;50.284;18.860;2024-02-23T05:48:19;96337.25;;;7.14;82.43
62057;BME280;48016;50.284;18.860;2024-02-23T05:50:45;96348.54;;;7.14;82.58
62057;BME280;48016;50.284;18.860;2024-02-23T05:53:11;96354.88;;;7.13;82.71
62057;BME280;48016;50.284;18.860;2024-02-23T05:55:37;96360.69;;;7.15;83.03
62057;BME280;48016;50.284;18.860;2024-02-23T05:58:03;96361.36;;;7.16;83.30
62057;BME280;48016;50.284;18.860;2024-02-23T06:00:30;96363.98;;;7.17;83.21
62057;BME280;48016;50.284;18.860;2024-02-23T06:02:57;96362.80;;;7.18;83.27
62057;BME280;48016;50.284;18.860;2024-02-23T06:05:23;96366.58;;;7.18;83.54
62057;BME280;48016;50.284;18.860;2024-02-23T06:07:49;96367.43;;;7.17;83.42
62057;BME280;48016;50.284;18.860;2024-02-23T06:10:15;96374.15;;;7.17;83.60
62057;BME280;48016;50.284;18.860;2024-02-23T06:12:41;96372.33;;;7.17;83.61
62057;BME280;48016;50.284;18.860;2024-02-23T06:15:07;96376.85;;;7.16;84.02
62057;BME280;48016;50.284;18.860;2024-02-23T06:17:33;96379.98;;;7.14;84.28
62057;BME280;48016;50.284;18.860;2024-02-23T06:19:59;96385.23;;;7.17;84.46
62057;BME280;48016;50.284;18.860;2024-02-23T06:22:25;96390.81;;;7.18;84.60
62057;BME280;48016;50.284;18.860;2024-02-23T06:24:51;96398.64;;;7.19;84.77
62057;BME280;48016;50.284;18.860;2024-02-23T06:27:17;96407.11;;;7.23;85.12
62057;BME280;48016;50.284;18.860;2024-02-23T06:29:43;96414.88;;;7.25;85.07
62057;BME280;48016;50.284;18.860;2024-02-23T06:32:09;96421.13;;;7.27;85.08
62057;BME280;48016;50.284;18.860;2024-02-23T06:34:35;96429.07;;;7.29;85.28
62057;BME280;48016;50.284;18.860;2024-02-23T06:37:01;96441.00;;;7.29;85.55
62057;BME280;48016;50.284;18.860;2024-02-23T06:39:27;96447.76;;;7.31;85.48
62057;BME280;48016;50.284;18.860;2024-02-23T06:41:53;96443.48;;;7.34;85.59
62057;BME280;48016;50.284;18.860;2024-02-23T06:44:19;96446.20;;;7.38;85.52
62057;BME280;48016;50.284;18.860;2024-02-23T06:46:45;96452.68;;;7.41;85.94
62057;BME280;48016;50.284;18.860;2024-02-23T06:49:11;96451.09;;;7.47;86.01
62057;BME280;48016;50.284;18.860;2024-02-23T06:51:37;96452.19;;;7.50;85.84
62057;BME280;48016;50.284;18.860;2024-02-23T06:54:04;96454.55;;;7.52;85.96
62057;BME280;48016;50.284;18.860;2024-02-23T06:56:30;96453.10;;;7.52;85.94
62057;BME280;48016;50.284;18.860;2024-02-23T06:58:56;96451.09;;;7.54;85.58
62057;BME280;48016;50.284;18.860;2024-02-23T07:01:22;96448.33;;;7.51;85.72
62057;BME280;48016;50.284;18.860;2024-02-23T07:03:48;96451.52;;;7.48;85.74
62057;BME280;48016;50.284;18.860;2024-02-23T07:06:16;96452.45;;;7.45;85.82
62057;BME280;48016;50.284;18.860;2024-02-23T07:08:44;96456.23;;;7.42;86.02
62057;BME280;48016;50.284;18.860;2024-02-23T07:11:10;96457.05;;;7.40;86.08
62057;BME280;48016;50.284;18.860;2024-02-23T07:13:36;96457.58;;;7.40;86.11
62057;BME280;48016;50.284;18.860;2024-02-23T07:16:05;96458.77;;;7.38;86.44
62057;BME280;48016;50.284;18.860;2024-02-23T07:18:31;96461.85;;;7.37;86.58
62057;BME280;48016;50.284;18.860;2024-02-23T07:20:58;96465.52;;;7.38;86.57
62057;BME280;48016;50.284;18.860;2024-02-23T07:23:24;96463.61;;;7.40;86.59
62057;BME280;48016;50.284;18.860;2024-02-23T07:25:50;96463.21;;;7.42;86.81
62057;BME280;48016;50.284;18.860;2024-02-23T07:28:16;96463.77;;;7.47;86.81
62057;BME280;48016;50.284;18.860;2024-02-23T07:30:45;96464.06;;;7.53;87.21
62057;BME280;48016;50.284;18.860;2024-02-23T07:33:12;96465.93;;;7.54;87.03
62057;BME280;48016;50.284;18.860;2024-02-23T07:35:38;96468.91;;;7.53;86.96
62057;BME280;48016;50.284;18.860;2024-02-23T07:38:04;96469.13;;;7.52;87.09
62057;BME280;48016;50.284;18.860;2024-02-23T07:40:30;96472.39;;;7.54;87.28
62057;BME280;48016;50.284;18.860;2024-02-23T07:42:57;96476.94;;;7.58;87.34
62057;BME280;48016;50.284;18.860;2024-02-23T07:45:23;96482.51;;;7.59;87.71
62057;BME280;48016;50.284;18.860;2024-02-23T07:47:49;96478.61;;;7.63;87.40
62057;BME280;48016;50.284;18.860;2024-02-23T07:50:15;96478.27;;;7.65;87.46
62057;BME280;48016;50.284;18.860;2024-02-23T07:52:41;96480.27;;;7.64;87.58
62057;BME280;48016;50.284;18.860;2024-02-23T07:55:07;96484.98;;;7.65;87.56
62057;BME280;48016;50.284;18.860;2024-02-23T07:57:33;96479.02;;;7.67;87.55
62057;BME280;48016;50.284;18.860;2024-02-23T08:00:00;96480.73;;;7.67;87.70
62057;BME280;48016;50.284;18.860;2024-02-23T08:02:26;96482.40;;;7.68;87.78
62057;BME280;48016;50.284;18.860;2024-02-23T08:04:52;96483.02;;;7.68;87.81
62057;BME280;48016;50.284;18.860;2024-02-23T08:07:18;96485.58;;;7.68;87.89
62057;BME280;48016;50.284;18.860;2024-02-23T08:09:44;96486.96;;;7.69;88.01
62057;BME280;48016;50.284;18.860;2024-02-23T08:12:11;96492.06;;;7.71;87.96
62057;BME280;48016;50.284;18.860;2024-02-23T08:14:39;96489.77;;;7.74;87.93
62057;BME280;48016;50.284;18.860;2024-02-23T08:17:05;96494.13;;;7.76;88.01
62057;BME280;48016;50.284;18.860;2024-02-23T08:19:33;96498.59;;;7.77;88.12
62057;BME280;48016;50.284;18.860;2024-02-23T08:21:59;96499.67;;;7.80;88.15
62057;BME280;48016;50.284;18.860;2024-02-23T08:24:25;96503.52;;;7.84;88.27
62057;BME280;48016;50.284;18.860;2024-02-23T08:26:52;96501.88;;;7.88;88.29
62057;BME280;48016;50.284;18.860;2024-02-23T08:29:18;96509.83;;;7.91;88.37
62057;BME280;48016;50.284;18.860;2024-02-23T08:31:44;96507.34;;;7.92;88.41
62057;BME280;48016;50.284;18.860;2024-02-23T08:34:10;96503.23;;;7.94;88.46
62057;BME280;48016;50.284;18.860;2024-02-23T08:36:36;96500.30;;;7.98;88.40
62057;BME280;48016;50.284;18.860;2024-02-23T08:39:02;96504.23;;;8.03;88.48
62057;BME280;48016;50.284;18.860;2024-02-23T08:41:28;96505.45;;;8.06;88.52
62057;BME280;48016;50.284;18.860;2024-02-23T08:43:54;96509.84;;;8.08;88.54
62057;BME280;48016;50.284;18.860;2024-02-23T08:46:23;96510.64;;;8.10;88.49
62057;BME280;48016;50.284;18.860;2024-02-23T08:48:49;96508.38;;;8.09;88.49
62057;BME280;48016;50.284;18.860;2024-02-23T08:51:15;96507.44;;;8.08;88.51
62057;BME280;48016;50.284;18.860;2024-02-23T08:53:41;96508.80;;;8.09;88.55
62057;BME280;48016;50.284;18.860;2024-02-23T08:56:07;96507.52;;;8.09;88.59
62057;BME280;48016;50.284;18.860;2024-02-23T08:58:34;96516.41;;;8.09;88.61
62057;BME280;48016;50.284;18.860;2024-02-23T09:01:00;96512.95;;;8.09;88.79
62057;BME280;48016;50.284;18.860;2024-02-23T09:03:25;96508.81;;;8.10;88.80
62057;BME280;48016;50.284;18.860;2024-02-23T09:05:51;96515.75;;;8.11;88.82
62057;BME280;48016;50.284;18.860;2024-02-23T09:08:17;96517.45;;;8.13;88.81
62057;BME280;48016;50.284;18.860;2024-02-23T09:10:45;96517.67;;;8.17;88.88
62057;BME280;48016;50.284;18.860;2024-02-23T09:13:10;96528.58;;;8.21;88.91
62057;BME280;48016;50.284;18.860;2024-02-23T09:15:36;96533.21;;;8.27;88.93
62057;BME280;48016;50.284;18.860;2024-02-23T09:18:02;96535.71;;;8.35;88.97
62057;BME280;48016;50.284;18.860;2024-02-23T09:20:28;96537.67;;;8.43;88.86
62057;BME280;48016;50.284;18.860;2024-02-23T09:22:54;96536.57;;;8.50;88.82
62057;BME280;48016;50.284;18.860;2024-02-23T09:25:20;96544.47;;;8.59;88.91
62057;BME280;48016;50.284;18.860;2024-02-23T09:27:46;96553.02;;;8.71;88.79
62057;BME280;48016;50.284;18.860;2024-02-23T09:30:13;96553.14;;;8.84;88.71
62057;BME280;48016;50.284;18.860;2024-02-23T09:32:39;96557.55;;;8.97;88.69
62057;BME280;48016;50.284;18.860;2024-02-23T09:35:05;96556.17;;;9.08;88.67
62057;BME280;48016;50.284;18.860;2024-02-23T09:37:32;96554.02;;;9.17;88.47
62057;BME280;48016;50.284;18.860;2024-02-23T09:39:58;96557.42;;;9.24;88.35
62057;BME280;48016;50.284;18.860;2024-02-23T09:42:24;96566.03;;;9.35;88.27
62057;BME280;48016;50.284;18.860;2024-02-23T09:45:00;96567.66;;;9.47;88.18
62057;BME280;48016;50.284;18.860;2024-02-23T09:47:27;96573.27;;;9.56;88.08
62057;BME280;48016;50.284;18.860;2024-02-23T09:49:54;96577.30;;;9.61;87.88
62057;BME280;48016;50.284;18.860;2024-02-23T09:52:21;96581.01;;;9.66;87.81
62057;BME280;48016;50.284;18.860;2024-02-23T09:54:48;96583.88;;;9.69;87.65
62057;BME280;48016;50.284;18.860;2024-02-23T09:57:15;96583.88;;;9.73;87.57
62057;BME280;48016;50.284;18.860;2024-02-23T09:59:41;96579.84;;;9.77;87.35
62057;BME280;48016;50.284;18.860;2024-02-23T10:02:09;96580.87;;;9.84;87.31
62057;BME280;48016;50.284;18.860;2024-02-23T10:04:39;96581.13;;;9.88;87.15
62057;BME280;48016;50.284;18.860;2024-02-23T10:07:06;96586.41;;;9.90;87.05
62057;BME280;48016;50.284;18.860;2024-02-23T10:09:32;96587.37;;;9.93;87.04
62057;BME280;48016;50.284;18.860;2024-02-23T10:11:58;96588.13;;;9.97;86.89
62057;BME280;48016;50.284;18.860;2024-02-23T10:14:24;96587.05;;;9.97;86.64
62057;BME280;48016;50.284;18.860;2024-02-23T10:16:50;96583.83;;;9.95;86.38
62057;BME280;48016;50.284;18.860;2024-02-23T10:19:21;96580.40;;;9.90;86.27
62057;BME280;48016;50.284;18.860;2024-02-23T10:21:47;96575.98;;;9.85;86.17
62057;BME280;48016;50.284;18.860;2024-02-23T10:24:17;96577.29;;;9.81;86.06
62057;BME280;48016;50.284;18.860;2024-02-23T10:26:43;96579.78;;;9.80;86.13
62057;BME280;48016;50.284;18.860;2024-02-23T10:29:10;96580.81;;;9.81;85.94
62057;BME280;48016;50.284;18.860;2024-02-23T10:31:36;96587.83;;;9.77;85.85
62057;BME280;48016;50.284;18.860;2024-02-23T10:34:09;96586.55;;;9.71;85.68
62057;BME280;48016;50.284;18.860;2024-02-23T10:36:42;96585.25;;;9.67;85.65
62057;BME280;48016;50.284;18.860;2024-02-23T10:39:09;96572.75;;;9.70;85.64
62057;BME280;48016;50.284;18.860;2024-02-23T10:41:35;96578.39;;;9.72;85.50
62057;BME280;48016;50.284;18.860;2024-02-23T10:44:05;96584.04;;;9.69;85.57
62057;BME280;48016;50.284;18.860;2024-02-23T10:46:32;96598.77;;;9.70;85.22
62057;BME280;48016;50.284;18.860;2024-02-23T10:48:59;96609.24;;;9.65;85.20
62057;BME280;48016;50.284;18.860;2024-02-23T10:51:25;96609.72;;;9.62;85.27
62057;BME280;48016;50.284;18.860;2024-02-23T10:53:52;96614.83;;;9.59;85.18
62057;BME280;48016;50.284;18.860;2024-02-23T10:56:18;96617.73;;;9.56;85.16
62057;BME280;48016;50.284;18.860;2024-02-23T10:58:45;96623.30;;;9.50;85.23
62057;BME280;48016;50.284;18.860;2024-02-23T11:01:12;96627.38;;;9.47;85.12
62057;BME280;48016;50.284;18.860;2024-02-23T11:03:42;96624.55;;;9.45;85.22
62057;BME280;48016;50.284;18.860;2024-02-23T11:06:10;96625.70;;;9.44;85.19
62057;BME280;48016;50.284;18.860;2024-02-23T11:08:37;96625.33;;;9.43;85.18
62057;BME280;48016;50.284;18.860;2024-02-23T11:11:10;96624.34;;;9.40;85.24
62057;BME280;48016;50.284;18.860;2024-02-23T11:13:38;96619.33;;;9.39;85.32
62057;BME280;48016;50.284;18.860;2024-02-23T11:16:08;96623.70;;;9.39;85.30
62057;BME280;48016;50.284;18.860;2024-02-23T11:18:39;96622.83;;;9.40;85.40
62057;BME280;48016;50.284;18.860;2024-02-23T11:21:09;96629.42;;;9.39;85.35
62057;BME280;48016;50.284;18.860;2024-02-23T11:23:41;96642.27;;;9.38;85.34
62057;BME280;48016;50.284;18.860;2024-02-23T11:26:12;96651.88;;;9.37;85.51
62057;BME280;48016;50.284;18.860;2024-02-23T11:28:48;96649.89;;;9.36;85.54
62057;BME280;48016;50.284;18.860;2024-02-23T11:31:21;96645.70;;;9.35;85.54
62057;BME280;48016;50.284;18.860;2024-02-23T11:33:48;96642.84;;;9.36;85.69
62057;BME280;48016;50.284;18.860;2024-02-23T11:38:48;96650.02;;;9.44;85.78
62057;BME280;48016;50.284;18.860;2024-02-23T11:41:16;96649.23;;;9.47;85.70
62057;BME280;48016;50.284;18.860;2024-02-23T11:43:42;96651.65;;;9.48;85.71
62057;BME280;48016;50.284;18.860;2024-02-23T11:46:09;96656.63;;;9.51;85.69
62057;BME280;48016;50.284;18.860;2024-02-23T11:48:35;96656.45;;;9.53;85.69
62057;BME280;48016;50.284;18.860;2024-02-23T11:51:01;96657.89;;;9.54;85.78
62057;BME280;48016;50.284;18.860;2024-02-23T11:53:27;96666.86;;;9.57;85.67
62057;BME280;48016;50.284;18.860;2024-02-23T11:55:54;96665.40;;;9.57;85.77
62057;BME280;48016;50.284;18.860;2024-02-23T11:58:20;96669.23;;;9.58;85.80
62057;BME280;48016;50.284;18.860;2024-02-23T12:00:46;96681.50;;;9.61;85.92
62057;BME280;48016;50.284;18.860;2024-02-23T12:03:12;96690.42;;;9.64;85.91
62057;BME280;48016;50.284;18.860;2024-02-23T12:05:39;96694.85;;;9.63;85.91
62057;BME280;48016;50.284;18.860;2024-02-23T12:08:05;96693.38;;;9.61;85.96
62057;BME280;48016;50.284;18.860;2024-02-23T12:10:31;96686.73;;;9.60;85.96
62057;BME280;48016;50.284;18.860;2024-02-23T12:12:57;96682.23;;;9.59;85.97
62057;BME280;48016;50.284;18.860;2024-02-23T12:15:24;96672.34;;;9.60;86.10
62057;BME280;48016;50.284;18.860;2024-02-23T12:17:51;96665.42;;;9.60;86.14
62057;BME280;48016;50.284;18.860;2024-02-23T12:20:17;96661.19;;;9.63;86.20
62057;BME280;48016;50.284;18.860;2024-02-23T12:22:43;96663.48;;;9.65;86.19
62057;BME280;48016;50.284;18.860;2024-02-23T12:25:09;96670.25;;;9.67;86.15
62057;BME280;48016;50.284;18.860;2024-02-23T12:27:34;96674.58;;;9.72;86.27
62057;BME280;48016;50.284;18.860;2024-02-23T12:30:00;96670.66;;;9.77;86.28
62057;BME280;48016;50.284;18.860;2024-02-23T12:32:26;96668.14;;;9.77;86.18
62057;BME280;48016;50.284;18.860;2024-02-23T12:34:52;96668.66;;;9.78;86.20
62057;BME280;48016;50.284;18.860;2024-02-23T12:37:18;96670.27;;;9.79;86.10
62057;BME280;48016;50.284;18.860;2024-02-23T12:39:44;96672.30;;;9.80;86.14
62057;BME280;48016;50.284;18.860;2024-02-23T12:42:10;96669.48;;;9.82;86.29
62057;BME280;48016;50.284;18.860;2024-02-23T12:44:36;96665.14;;;9.87;86.27
62057;BME280;48016;50.284;18.860;2024-02-23T12:47:02;96662.42;;;9.89;86.20
62057;BME280;48016;50.284;18.860;2024-02-23T12:49:28;96670.52;;;9.93;86.28
62057;BME280;48016;50.284;18.860;2024-02-23T12:51:56;96672.14;;;9.97;86.37
62057;BME280;48016;50.284;18.860;2024-02-23T12:54:22;96668.52;;;10.01;86.29
62057;BME280;48016;50.284;18.860;2024-02-23T12:56:48;96679.41;;;10.02;86.26
62057;BME280;48016;50.284;18.860;2024-02-23T12:59:15;96684.30;;;10.03;86.19